sensor_id;sensor_type;location;lat;lon;timestamp;pressure;altitude;pressure_sealevel;temperature;humidity
56414;BME280;42318;48.452;19.526;2022-09-16T00:03:25;97263.66;;;21.31;56.80
56414;BME280;42318;48.452;19.526;2022-09-16T00:10:59;97277.28;;;21.31;56.68
56414;BME280;42318;48.452;19.526;2022-09-16T00:18:30;97289.06;;;21.26;56.55
56414;BME280;42318;48.452;19.526;2022-09-16T00:26:02;97286.63;;;21.25;56.62
56414;BME280;42318;48.452;19.526;2022-09-16T00:33:33;97301.34;;;21.24;56.81
56414;BME280;42318;48.452;19.526;2022-09-16T00:41:04;97303.50;;;21.22;56.94
56414;BME280;42318;48.452;19.526;2022-09-16T00:48:35;97302.44;;;21.23;57.07
56414;BME280;42318;48.452;19.526;2022-09-16T00:56:08;97287.47;;;21.20;56.64
56414;BME280;42318;48.452;19.526;2022-09-16T01:03:45;97297.84;;;21.18;56.99
56414;BME280;42318;48.452;19.526;2022-09-16T01:11:18;97301.66;;;21.17;56.61
56414;BME280;42318;48.452;19.526;2022-09-16T01:19:04;97306.00;;;21.18;57.10
56414;BME280;42318;48.452;19.526;2022-09-16T01:26:53;97322.63;;;21.17;57.06
56414;BME280;42318;48.452;19.526;2022-09-16T01:34:32;97330.00;;;21.16;57.13
56414;BME280;42318;48.452;19.526;2022-09-16T01:50:07;97319.81;;;21.03;56.71
56414;BME280;42318;48.452;19.526;2022-09-16T01:58:05;97339.34;;;21.10;56.74
56414;BME280;42318;48.452;19.526;2022-09-16T02:05:58;97330.41;;;21.05;56.91
56414;BME280;42318;48.452;19.526;2022-09-16T02:13:35;97352.44;;;21.08;57.01
56414;BME280;42318;48.452;19.526;2022-09-16T02:21:10;97347.28;;;21.07;56.67
56414;BME280;42318;48.452;19.526;2022-09-16T02:28:45;97346.47;;;21.06;56.92
56414;BME280;42318;48.452;19.526;2022-09-16T02:36:20;97353.81;;;21.06;56.81
56414;BME280;42318;48.452;19.526;2022-09-16T02:43:52;97358.81;;;20.98;56.82
56414;BME280;42318;48.452;19.526;2022-09-16T02:59:14;97350.34;;;21.00;56.88
56414;BME280;42318;48.452;19.526;2022-09-16T03:06:46;97356.66;;;20.95;57.08
56414;BME280;42318;48.452;19.526;2022-09-16T03:29:58;97355.03;;;20.94;56.94
56414;BME280;42318;48.452;19.526;2022-09-16T03:37:34;97360.50;;;20.94;57.00
56414;BME280;42318;48.452;19.526;2022-09-16T03:45:09;97364.88;;;20.90;57.00
56414;BME280;42318;48.452;19.526;2022-09-16T03:52:43;97377.69;;;20.90;56.98
56414;BME280;42318;48.452;19.526;2022-09-16T04:00:16;97372.31;;;20.85;57.19
56414;BME280;42318;48.452;19.526;2022-09-16T04:07:48;97393.78;;;20.86;57.21
56414;BME280;42318;48.452;19.526;2022-09-16T04:15:19;97392.47;;;20.84;57.21
56414;BME280;42318;48.452;19.526;2022-09-16T04:22:50;97410.41;;;20.85;57.28
56414;BME280;42318;48.452;19.526;2022-09-16T04:30:21;97413.94;;;20.85;57.07
56414;BME280;42318;48.452;19.526;2022-09-16T04:37:52;97427.56;;;20.85;57.28
56414;BME280;42318;48.452;19.526;2022-09-16T04:45:23;97438.75;;;20.84;57.42
56414;BME280;42318;48.452;19.526;2022-09-16T04:52:53;97431.97;;;20.81;57.00
56414;BME280;42318;48.452;19.526;2022-09-16T05:00:24;97448.28;;;20.81;57.12
56414;BME280;42318;48.452;19.526;2022-09-16T05:07:56;97444.81;;;20.70;57.38
56414;BME280;42318;48.452;19.526;2022-09-16T05:15:27;97441.53;;;20.74;57.14
56414;BME280;42318;48.452;19.526;2022-09-16T05:22:58;97454.25;;;20.83;57.06
56414;BME280;42318;48.452;19.526;2022-09-16T05:30:29;97457.00;;;20.83;57.11
56414;BME280;42318;48.452;19.526;2022-09-16T05:38:00;97443.09;;;20.80;57.14
56414;BME280;42318;48.452;19.526;2022-09-16T05:45:30;97449.91;;;20.82;56.87
56414;BME280;42318;48.452;19.526;2022-09-16T05:53:01;97449.09;;;20.82;57.15
56414;BME280;42318;48.452;19.526;2022-09-16T06:00:32;97429.59;;;20.69;57.31
56414;BME280;42318;48.452;19.526;2022-09-16T06:08:02;97448.28;;;20.81;57.53
56414;BME280;42318;48.452;19.526;2022-09-16T06:15:33;97434.94;;;20.80;57.31
56414;BME280;42318;48.452;19.526;2022-09-16T06:23:05;97427.16;;;20.68;57.36
56414;BME280;42318;48.452;19.526;2022-09-16T06:30:40;97433.59;;;20.77;57.34
56414;BME280;42318;48.452;19.526;2022-09-16T06:38:10;97433.59;;;20.77;57.33
56414;BME280;42318;48.452;19.526;2022-09-16T06:45:41;97443.38;;;20.78;57.45
56414;BME280;42318;48.452;19.526;2022-09-16T06:53:13;97452.09;;;20.80;57.33
56414;BME280;42318;48.452;19.526;2022-09-16T07:00:45;97456.41;;;20.86;57.27
56414;BME280;42318;48.452;19.526;2022-09-16T07:08:15;97440.66;;;20.83;57.28
56414;BME280;42318;48.452;19.526;2022-09-16T07:15:46;97458.31;;;20.86;57.83
56414;BME280;42318;48.452;19.526;2022-09-16T07:23:17;97466.22;;;20.87;57.50
56414;BME280;42318;48.452;19.526;2022-09-16T07:30:47;97471.66;;;20.87;57.56
56414;BME280;42318;48.452;19.526;2022-09-16T07:38:18;97467.25;;;20.91;57.65
56414;BME280;42318;48.452;19.526;2022-09-16T07:45:56;97462.63;;;20.92;57.64
56414;BME280;42318;48.452;19.526;2022-09-16T07:53:28;97476.25;;;20.92;57.59
56414;BME280;42318;48.452;19.526;2022-09-16T08:00:59;97467.78;;;20.93;57.54
56414;BME280;42318;48.452;19.526;2022-09-16T08:08:31;97472.41;;;20.93;57.78
56414;BME280;42318;48.452;19.526;2022-09-16T08:16:04;97487.38;;;20.95;57.56
56414;BME280;42318;48.452;19.526;2022-09-16T08:23:37;97482.75;;;20.96;57.51
56414;BME280;42318;48.452;19.526;2022-09-16T08:31:08;97487.91;;;20.97;57.69
56414;BME280;42318;48.452;19.526;2022-09-16T08:38:40;97491.72;;;20.96;57.48
56414;BME280;42318;48.452;19.526;2022-09-16T08:46:22;97491.44;;;20.98;57.49
56414;BME280;42318;48.452;19.526;2022-09-16T08:54:17;97502.56;;;21.01;57.23
56414;BME280;42318;48.452;19.526;2022-09-16T09:02:15;97494.69;;;21.00;57.47
56414;BME280;42318;48.452;19.526;2022-09-16T09:26:46;97487.28;;;21.06;57.42
56414;BME280;42318;48.452;19.526;2022-09-16T09:34:11;97478.59;;;21.04;57.48
56414;BME280;42318;48.452;19.526;2022-09-16T09:41:53;97480.69;;;21.12;56.92
56414;BME280;42318;48.452;19.526;2022-09-16T09:49:41;97482.00;;;21.14;57.69
56414;BME280;42318;48.452;19.526;2022-09-16T09:57:19;97480.63;;;21.17;57.55
56414;BME280;42318;48.452;19.526;2022-09-16T10:04:52;97463.75;;;21.15;57.29
56414;BME280;42318;48.452;19.526;2022-09-16T10:12:32;97462.38;;;21.17;57.51
56414;BME280;42318;48.452;19.526;2022-09-16T10:20:05;97474.59;;;21.20;57.51
56414;BME280;42318;48.452;19.526;2022-09-16T10:27:58;97457.75;;;21.18;57.31
56414;BME280;42318;48.452;19.526;2022-09-16T10:35:35;97446.31;;;21.16;57.52
56414;BME280;42318;48.452;19.526;2022-09-16T10:43:13;97440.28;;;21.19;57.45
56414;BME280;42318;48.452;19.526;2022-09-16T10:50:53;97430.72;;;21.21;57.73
56414;BME280;42318;48.452;19.526;2022-09-16T10:58:24;97428.00;;;21.21;57.93
56414;BME280;42318;48.452;19.526;2022-09-16T11:37:46;97423.66;;;21.20;58.44
56414;BME280;42318;48.452;19.526;2022-09-16T12:00:53;97397.75;;;21.28;58.24
56414;BME280;42318;48.452;19.526;2022-09-16T12:08:48;97400.34;;;21.38;58.21
56414;BME280;42318;48.452;19.526;2022-09-16T12:16:30;97377.38;;;21.44;58.01
56414;BME280;42318;48.452;19.526;2022-09-16T12:24:08;97375.13;;;21.51;57.63
56414;BME280;42318;48.452;19.526;2022-09-16T12:31:46;97391.91;;;21.58;57.43
56414;BME280;42318;48.452;19.526;2022-09-16T12:39:18;97384.25;;;21.60;57.49
56414;BME280;42318;48.452;19.526;2022-09-16T12:47:02;97368.91;;;21.70;57.19
56414;BME280;42318;48.452;19.526;2022-09-16T13:02:26;97361.53;;;21.70;56.92
56414;BME280;42318;48.452;19.526;2022-09-16T13:10:17;97373.59;;;21.64;56.73
56414;BME280;42318;48.452;19.526;2022-09-16T13:17:49;97373.66;;;21.59;57.23
56414;BME280;42318;48.452;19.526;2022-09-16T13:25:28;97349.78;;;21.51;57.43
56414;BME280;42318;48.452;19.526;2022-09-16T13:33:21;97363.53;;;21.41;57.68
56414;BME280;42318;48.452;19.526;2022-09-16T13:40:58;97360.44;;;21.47;57.66
56414;BME280;42318;48.452;19.526;2022-09-16T13:48:34;97354.78;;;21.44;58.20
56414;BME280;42318;48.452;19.526;2022-09-16T14:04:38;97374.66;;;21.44;58.72
56414;BME280;42318;48.452;19.526;2022-09-16T14:12:25;97378.13;;;21.50;58.65
56414;BME280;42318;48.452;19.526;2022-09-16T14:19:58;97365.25;;;21.55;58.08
56414;BME280;42318;48.452;19.526;2022-09-16T14:27:31;97362.22;;;21.57;57.90
56414;BME280;42318;48.452;19.526;2022-09-16T14:35:21;97358.09;;;21.59;57.88
56414;BME280;42318;48.452;19.526;2022-09-16T14:43:05;97352.88;;;21.63;57.63
56414;BME280;42318;48.452;19.526;2022-09-16T14:50:39;97354.97;;;21.71;57.46
56414;BME280;42318;48.452;19.526;2022-09-16T14:58:12;97351.94;;;21.73;57.34
56414;BME280;42318;48.452;19.526;2022-09-16T15:05:45;97362.56;;;21.74;57.42
56414;BME280;42318;48.452;19.526;2022-09-16T15:13:17;97365.00;;;21.76;57.15
56414;BME280;42318;48.452;19.526;2022-09-16T15:20:52;97366.63;;;21.77;57.06
56414;BME280;42318;48.452;19.526;2022-09-16T15:28:24;97365.50;;;21.78;57.06
56414;BME280;42318;48.452;19.526;2022-09-16T15:35:58;97349.75;;;21.75;56.81
56414;BME280;42318;48.452;19.526;2022-09-16T15:43:36;97366.84;;;21.80;56.96
56414;BME280;42318;48.452;19.526;2022-09-16T15:51:38;97377.75;;;21.80;56.94
56414;BME280;42318;48.452;19.526;2022-09-16T15:59:39;97367.66;;;21.81;57.09
56414;BME280;42318;48.452;19.526;2022-09-16T16:07:10;97358.66;;;21.80;56.61
56414;BME280;42318;48.452;19.526;2022-09-16T16:14:42;97352.91;;;21.82;56.50
56414;BME280;42318;48.452;19.526;2022-09-16T16:22:13;97353.78;;;21.77;56.87
56414;BME280;42318;48.452;19.526;2022-09-16T16:29:45;97324.63;;;21.78;56.75
56414;BME280;42318;48.452;19.526;2022-09-16T16:37:18;97351.59;;;21.79;56.99
56414;BME280;42318;48.452;19.526;2022-09-16T16:44:49;97343.41;;;21.79;56.91
56414;BME280;42318;48.452;19.526;2022-09-16T16:52:20;97363.31;;;21.80;56.83
56414;BME280;42318;48.452;19.526;2022-09-16T16:59:50;97353.19;;;21.80;56.87
56414;BME280;42318;48.452;19.526;2022-09-16T17:07:21;97366.03;;;21.80;56.57
56414;BME280;42318;48.452;19.526;2022-09-16T17:14:52;97352.41;;;21.80;56.74
56414;BME280;42318;48.452;19.526;2022-09-16T17:22:23;97336.69;;;21.72;56.56
56414;BME280;42318;48.452;19.526;2022-09-16T17:29:54;97375.31;;;21.79;56.49
56414;BME280;42318;48.452;19.526;2022-09-16T17:37:24;97371.78;;;21.78;56.63
56414;BME280;42318;48.452;19.526;2022-09-16T17:44:55;97359.47;;;21.81;56.50
56414;BME280;42318;48.452;19.526;2022-09-16T17:52:28;97333.09;;;21.76;56.38
56414;BME280;42318;48.452;19.526;2022-09-16T17:59:58;97347.53;;;21.77;56.75
56414;BME280;42318;48.452;19.526;2022-09-16T18:07:29;97358.34;;;21.82;56.93
56414;BME280;42318;48.452;19.526;2022-09-16T18:15:00;97363.81;;;21.82;56.93
56414;BME280;42318;48.452;19.526;2022-09-16T18:22:31;97371.19;;;21.81;57.07
56414;BME280;42318;48.452;19.526;2022-09-16T18:30:02;97381.78;;;21.83;56.78
56414;BME280;42318;48.452;19.526;2022-09-16T18:37:33;97398.16;;;21.83;56.99
56414;BME280;42318;48.452;19.526;2022-09-16T18:45:04;97381.78;;;21.83;56.83
56414;BME280;42318;48.452;19.526;2022-09-16T18:52:35;97398.97;;;21.83;56.90
56414;BME280;42318;48.452;19.526;2022-09-16T19:00:06;97376.34;;;21.83;56.64
56414;BME280;42318;48.452;19.526;2022-09-16T19:07:37;97364.91;;;21.81;56.82
56414;BME280;42318;48.452;19.526;2022-09-16T19:15:09;97382.38;;;21.80;56.70
56414;BME280;42318;48.452;19.526;2022-09-16T19:22:40;97387.84;;;21.80;56.60
56414;BME280;42318;48.452;19.526;2022-09-16T19:30:10;97380.84;;;21.74;56.75
56414;BME280;42318;48.452;19.526;2022-09-16T19:37:41;97396.31;;;21.78;56.86
56414;BME280;42318;48.452;19.526;2022-09-16T19:45:12;97374.50;;;21.78;56.47
56414;BME280;42318;48.452;19.526;2022-09-16T19:52:43;97390.34;;;21.76;56.51
56414;BME280;42318;48.452;19.526;2022-09-16T20:00:13;97377.53;;;21.77;56.69
56414;BME280;42318;48.452;19.526;2022-09-16T20:07:44;97372.13;;;21.72;56.33
56414;BME280;42318;48.452;19.526;2022-09-16T20:15:15;97385.19;;;21.75;56.45
56414;BME280;42318;48.452;19.526;2022-09-16T20:22:46;97373.75;;;21.73;56.33
56414;BME280;42318;48.452;19.526;2022-09-16T20:30:17;97375.38;;;21.74;56.39
56414;BME280;42318;48.452;19.526;2022-09-16T20:37:47;97383.84;;;21.72;56.17
56414;BME280;42318;48.452;19.526;2022-09-16T20:45:18;97391.22;;;21.72;56.41
56414;BME280;42318;48.452;19.526;2022-09-16T20:52:49;97368.31;;;21.73;56.37
56414;BME280;42318;48.452;19.526;2022-09-16T21:00:20;97380.84;;;21.74;56.08
56414;BME280;42318;48.452;19.526;2022-09-16T21:07:51;97372.13;;;21.72;56.04
56414;BME280;42318;48.452;19.526;2022-09-16T21:15:22;97376.31;;;21.64;56.16
56414;BME280;42318;48.452;19.526;2022-09-16T21:22:53;97375.19;;;21.65;56.38
56414;BME280;42318;48.452;19.526;2022-09-16T21:30:24;97383.63;;;21.69;56.27
56414;BME280;42318;48.452;19.526;2022-09-16T21:37:54;97379.84;;;21.64;56.07
56414;BME280;42318;48.452;19.526;2022-09-16T21:45:25;97375.78;;;21.62;56.13
56414;BME280;42318;48.452;19.526;2022-09-16T21:52:56;97371.44;;;21.61;56.32
56414;BME280;42318;48.452;19.526;2022-09-16T22:00:27;97359.28;;;21.53;56.33
56414;BME280;42318;48.452;19.526;2022-09-16T22:08:01;97359.34;;;21.48;56.36
56414;BME280;42318;48.452;19.526;2022-09-16T22:15:32;97370.97;;;21.35;56.65
56414;BME280;42318;48.452;19.526;2022-09-16T22:23:03;97385.09;;;21.37;56.71
56414;BME280;42318;48.452;19.526;2022-09-16T22:30:34;97388.47;;;21.29;56.75
56414;BME280;42318;48.452;19.526;2022-09-16T22:38:04;97375.69;;;21.24;56.82
56414;BME280;42318;48.452;19.526;2022-09-16T22:45:35;97363.72;;;21.20;56.65
56414;BME280;42318;48.452;19.526;2022-09-16T22:53:06;97360.84;;;21.12;56.73
56414;BME280;42318;48.452;19.526;2022-09-16T23:00:37;97383.44;;;21.12;57.09
56414;BME280;42318;48.452;19.526;2022-09-16T23:08:07;97379.97;;;21.07;56.79
56414;BME280;42318;48.452;19.526;2022-09-16T23:15:38;97378.34;;;21.06;56.96
56414;BME280;42318;48.452;19.526;2022-09-16T23:23:09;97383.78;;;21.06;57.36
56414;BME280;42318;48.452;19.526;2022-09-16T23:30:40;97375.97;;;20.99;57.23
56414;BME280;42318;48.452;19.526;2022-09-16T23:38:10;97366.69;;;21.00;57.36
56414;BME280;42318;48.452;19.526;2022-09-16T23:45:41;97358.28;;;20.96;57.02
56414;BME280;42318;48.452;19.526;2022-09-16T23:53:12;97360.72;;;20.98;57.21
